Vienna, Missouri
Current Conditions -  °F | °C
As of 7:53 AM on Sunday 21 Dec 2014 (Local Time) from KVIH Reporting Station
Overcast Overcast  
Wind Chill: 32°   Ceiling: 2600
Heat Index: 38°   Visibility: 10mi
Dew Point: 34°   Wind: 8mph
Humidity: 86%   Direction: 150°SSE
Pressure: 30.13"   Gusts: NA
Location:  38.19°N, 91.95°W
Report Text: KVIH 211353Z AUTO 15007KT 10SM OVC026 03/01 A3013 RMK AO2 SLP209 T00330011
Loading
Personal Weather Stations






























Interactive Weather Map New forecast layout! Learn more

10-Day Weather Forecast

Advertisements
Track Severe Weather on mobile